Muskogee, OK

2:43 AM CST on December 29, 2014 (GMT -0600)
KOKMUSKO9 | Change Station
CLOSE
Current Station
Personal Weather Station
Location: Muskogee, OK
Elevation: 582 ft
Nearby Weather Stations

Elev 582 ft 35.75 °N, 95.33 °W | Updated 1 second ago

Clear
Clear
26.7 °F
Feels Like 27 °F
N
0.0
Wind Variable Wind from North
Gusts 0.0 mph

Today
High -- | Low -- °F
--% Chance of Precip.
Yesterday
High -- | Low -- °F
Precip. -- in
7:30 AM 5:16 PM
First Quarter, 56% visible
Pressure 30.20 in
Visibility 9.0 miles
Clouds Clear
Windchill 27 °F
Dew Point 25 °F
Humidity 94%
Rainfall 0.00 in
Snow Depth Not available.
UV 0.0 out of 12
Pollen 5.10 out of 12
Air Quality Not available.
Flu Activity Not available.
METAR KMKO 290753Z AUTO 00000KT 9SM CLR M04/M05 A3019 RMK AO2 SLP225 T10391050

More Conditions Fewer Conditions

Pressure 30.20 in
Visibility 9.0 miles
Clouds Clear
Windchill 27 °F
Dew Point 25 °F
Humidity 94%
Rainfall 0.00 in
Snow Depth Not available.
UV 0.0 out of 12
Pollen 5.10 out of 12
Air Quality Not available.
Flu Activity Not available.
METAR KMKO 290753Z AUTO 00000KT 9SM CLR M04/M05 A3019 RMK AO2 SLP225 T10391050

More Conditions Fewer Conditions

10-Day Weather Forecast

Almanac

Astronomy

Dec. 29, 2014 Rise Set
Actual Time
Civil Twilight
Nautical Twilight
Astronomical Twilight
Moon
Length of Visible Light
Length of Day
Tomorrow will be .
, % of the Moon is Illuminated

Today's Extremes

State Highs State Lows

Community

WunderPhotos

Upload Photos

1,781,558 photos uploaded!

WunderBlogs® & News

Nearby

Air Quality

  Air Quality AQ Index Pollutant
Not available.

Snow Depth

Station Depth Elevation

Earthquake Activity

City Distance Mag. Time & Date
Minimum magnitude displayed is 2.5.

Coastal Water Temperatures

Place Temperature

Nearby Weather Stations